Tangier, Morocco
Current Conditions -  °F | °C
As of 6:30 AM on Thursday 18 Dec 2014 (Local Time) from GMTT Reporting Station
Few Clouds Few Clouds  
Wind Chill: 44°   Ceiling: Unl
Heat Index: 46°   Visibility: 5mi
Dew Point: 45°   Wind: 5mph
Humidity: 93%   Direction: 100°E
Pressure: 30.3"   Gusts: NA
Location:  35.79°N, 5.81°W
Report Text: GMTT 180530Z 10004KT 8000 FEW016 08/07 Q1026 NOSIG
Loading
Personal Weather Stations






























Interactive Weather Map New forecast layout! Learn more

10-Day Weather Forecast

Advertisements
Track Severe Weather on mobile